createdAt,value
2022-11-29T00:02:35.732Z,21.35
2022-11-29T00:07:37.880Z,21.45
2022-11-29T00:12:40.018Z,20.60
2022-11-29T00:17:42.073Z,19.27
2022-11-29T00:22:44.054Z,19.15
2022-11-29T00:27:46.165Z,19.55
2022-11-29T00:32:48.199Z,20.80
2022-11-29T00:37:50.168Z,21.88
2022-11-29T00:42:52.193Z,24.58
2022-11-29T00:47:54.284Z,24.67
2022-11-29T00:52:56.342Z,23.63
2022-11-29T00:57:58.540Z,24.30
2022-11-29T01:03:01.690Z,22.70
2022-11-29T01:08:03.885Z,22.92
2022-11-29T01:13:06.650Z,21.60
2022-11-29T01:18:08.865Z,20.30
2022-11-29T01:23:10.843Z,19.52
2022-11-29T01:28:12.838Z,18.48
2022-11-29T01:33:14.802Z,18.30
2022-11-29T01:38:17.118Z,18.35
2022-11-29T01:43:19.106Z,17.77
2022-11-29T01:48:25.093Z,17.60
2022-11-29T01:53:27.858Z,17.77
2022-11-29T01:58:30.226Z,16.90
2022-11-29T02:03:32.235Z,16.42
2022-11-29T02:08:40.465Z,16.20
2022-11-29T02:14:01.201Z,17.13
2022-11-29T02:19:21.520Z,16.67
2022-11-29T02:24:29.591Z,16.65
2022-11-29T02:29:34.235Z,16.25
2022-11-29T02:34:39.031Z,16.38
2022-11-29T02:40:05.940Z,16.60
2022-11-29T02:45:21.708Z,17.30
2022-11-29T02:50:38.905Z,17.35
2022-11-29T02:56:05.998Z,16.23
2022-11-29T03:01:14.189Z,16.23
2022-11-29T03:06:44.268Z,16.60
2022-11-29T03:11:56.912Z,16.23
2022-11-29T03:17:05.731Z,16.10
2022-11-29T03:22:11.886Z,15.68
2022-11-29T03:27:21.171Z,15.20
2022-11-29T03:32:34.875Z,14.77
2022-11-29T03:37:50.373Z,14.95
2022-11-29T03:43:16.941Z,14.82
2022-11-29T03:48:27.614Z,15.05
2022-11-29T03:53:50.596Z,14.65
2022-11-29T03:59:04.040Z,14.43
2022-11-29T04:04:43.613Z,14.93
2022-11-29T04:10:20.284Z,15.40
2022-11-29T04:15:50.763Z,15.40
2022-11-29T04:21:16.934Z,15.55
2022-11-29T04:26:44.185Z,14.68
2022-11-29T04:32:14.337Z,15.25
2022-11-29T04:37:58.382Z,15.07
2022-11-29T04:43:44.495Z,15.10
2022-11-29T04:49:07.234Z,14.23
2022-11-29T04:54:30.960Z,14.75
2022-11-29T05:00:11.640Z,15.27
2022-11-29T05:05:54.894Z,14.98
2022-11-29T05:11:04.920Z,14.07
2022-11-29T05:16:32.884Z,15.30
2022-11-29T05:22:01.013Z,14.20
2022-11-29T05:27:57.022Z,14.09
2022-11-29T05:33:17.712Z,14.48
2022-11-29T05:38:34.495Z,14.40
2022-11-29T05:43:49.676Z,13.55
2022-11-29T05:49:04.658Z,13.73
2022-11-29T05:54:41.836Z,13.73
2022-11-29T05:59:45.282Z,13.82
2022-11-29T06:05:06.743Z,12.80
2022-11-29T06:10:13.654Z,13.43
2022-11-29T06:15:46.689Z,13.85
2022-11-29T06:21:26.446Z,13.43
2022-11-29T06:26:51.986Z,13.48
2022-11-29T06:32:20.471Z,14.48
2022-11-29T06:37:31.706Z,14.23
2022-11-29T06:42:33.754Z,13.90
2022-11-29T06:47:46.756Z,13.48
2022-11-29T06:53:02.790Z,12.77
2022-11-29T06:58:12.458Z,13.40
2022-11-29T07:03:36.477Z,14.23
2022-11-29T07:08:39.672Z,13.57
2022-11-29T07:13:42.148Z,13.85
2022-11-29T07:18:50.331Z,14.50
2022-11-29T07:24:18.808Z,14.10
2022-11-29T07:29:30.250Z,14.60
2022-11-29T07:35:01.763Z,15.00
2022-11-29T07:40:13.899Z,15.00
2022-11-29T07:45:31.963Z,14.80
2022-11-29T07:50:35.251Z,14.98
2022-11-29T07:55:37.457Z,16.20
2022-11-29T08:00:41.966Z,15.95
2022-11-29T08:05:47.666Z,17.00
2022-11-29T08:10:49.933Z,15.52
2022-11-29T08:15:52.008Z,15.15
2022-11-29T08:20:53.988Z,15.77
2022-11-29T08:26:00.508Z,17.20
2022-11-29T08:31:05.060Z,16.13
2022-11-29T08:36:14.575Z,17.50
2022-11-29T08:41:17.627Z,17.75
2022-11-29T08:46:19.741Z,17.00
2022-11-29T08:51:21.758Z,17.95
2022-11-29T08:57:10.318Z,17.67
2022-11-29T09:01:45.852Z,17.20
2022-11-29T09:06:49.605Z,17.33
2022-11-29T09:11:51.859Z,17.20
2022-11-29T09:16:55.324Z,17.25
2022-11-29T09:21:57.567Z,17.90
2022-11-29T09:26:59.999Z,18.40
2022-11-29T09:32:02.138Z,17.45
2022-11-29T09:37:05.203Z,18.10
2022-11-29T09:42:58.526Z,18.40
2022-11-29T09:48:26.295Z,16.48
2022-11-29T09:53:46.892Z,16.63
2022-11-29T09:58:55.226Z,16.83
2022-11-29T10:04:02.910Z,17.13
2022-11-29T10:09:16.765Z,16.88
2022-11-29T10:14:33.484Z,16.88
2022-11-29T10:19:42.515Z,17.35
2022-11-29T10:24:58.272Z,15.45
2022-11-29T10:30:02.387Z,14.00
2022-11-29T10:35:11.975Z,15.18
2022-11-29T10:40:20.760Z,13.45
2022-11-29T10:45:33.977Z,14.05
2022-11-29T10:50:52.756Z,13.07
2022-11-29T10:56:09.199Z,12.90
2022-11-29T11:01:13.673Z,13.07
2022-11-29T11:06:18.364Z,14.13
2022-11-29T11:11:30.459Z,13.63
2022-11-29T11:16:37.368Z,15.07
2022-11-29T11:21:39.870Z,15.95
2022-11-29T11:26:45.103Z,14.52
2022-11-29T11:31:53.793Z,14.52
2022-11-29T11:37:17.923Z,16.77
2022-11-29T11:42:38.217Z,15.52
2022-11-29T11:47:47.322Z,16.85
2022-11-29T11:52:53.288Z,16.25
2022-11-29T11:58:07.821Z,17.42
2022-11-29T12:03:26.116Z,17.30
2022-11-29T12:08:29.538Z,16.73
2022-11-29T12:13:35.671Z,14.50
2022-11-29T12:18:40.510Z,15.07
2022-11-29T12:24:04.803Z,15.10
2022-11-29T12:29:15.262Z,15.68
2022-11-29T12:34:23.529Z,15.70
2022-11-29T12:39:59.363Z,14.40
2022-11-29T12:45:24.679Z,15.50
2022-11-29T12:50:40.257Z,14.77
2022-11-29T12:56:08.048Z,15.15
2022-11-29T13:01:25.472Z,15.50
2022-11-29T13:06:44.099Z,16.40
2022-11-29T13:12:10.372Z,15.63
2022-11-29T13:17:27.719Z,17.27
2022-11-29T13:22:45.342Z,16.52
2022-11-29T13:28:07.299Z,17.50
2022-11-29T13:33:26.295Z,18.40
2022-11-29T13:39:09.982Z,17.00
2022-11-29T13:44:17.289Z,20.48
2022-11-29T13:49:40.153Z,19.27
2022-11-29T13:54:42.551Z,22.15
2022-11-29T13:59:49.347Z,21.67
2022-11-29T14:04:51.937Z,22.27
2022-11-29T14:10:05.808Z,19.10
2022-11-29T14:15:10.864Z,20.83
2022-11-29T14:20:25.194Z,20.08
2022-11-29T14:30:58.636Z,20.15
2022-11-29T14:36:13.293Z,20.40
2022-11-29T14:41:27.229Z,20.60
2022-11-29T14:46:32.319Z,24.42
2022-11-29T14:51:34.870Z,21.33
2022-11-29T14:56:39.210Z,21.73
2022-11-29T15:01:45.465Z,26.15
2022-11-29T15:06:52.942Z,24.17
2022-11-29T15:12:02.234Z,24.55
2022-11-29T15:17:31.940Z,23.50
2022-11-29T15:22:53.855Z,24.25
2022-11-29T15:27:57.237Z,23.48
2022-11-29T15:33:00.616Z,21.50
2022-11-29T15:38:03.190Z,20.55
2022-11-29T15:43:14.503Z,21.77
2022-11-29T15:48:23.827Z,20.45
2022-11-29T15:53:32.730Z,20.45
2022-11-29T15:58:36.321Z,19.55
2022-11-29T16:03:40.979Z,21.30
2022-11-29T16:08:43.813Z,22.13
2022-11-29T16:14:22.974Z,22.40
2022-11-29T16:19:36.097Z,21.17
2022-11-29T16:24:40.699Z,21.40
2022-11-29T16:29:45.192Z,22.27
2022-11-29T16:34:47.667Z,23.02
2022-11-29T16:39:52.411Z,22.10
2022-11-29T16:45:00.388Z,23.10
2022-11-29T16:50:02.508Z,22.25
2022-11-29T16:55:04.858Z,23.85
2022-11-29T17:00:23.566Z,24.75
2022-11-29T17:05:26.003Z,22.20
2022-11-29T17:10:28.802Z,23.70
2022-11-29T17:15:30.889Z,23.48
2022-11-29T17:20:33.985Z,24.38
2022-11-29T17:25:36.095Z,25.42
2022-11-29T17:30:38.094Z,26.42
2022-11-29T17:35:40.105Z,25.35
2022-11-29T17:40:42.102Z,25.35
2022-11-29T17:45:44.244Z,23.83
2022-11-29T17:50:46.236Z,25.00
2022-11-29T17:55:48.191Z,26.25
2022-11-29T18:00:50.307Z,25.00
2022-11-29T18:05:52.335Z,24.83
2022-11-29T18:11:03.396Z,20.90
2022-11-29T18:21:12.929Z,23.38
2022-11-29T18:26:18.085Z,23.17
2022-11-29T18:31:28.701Z,22.98
2022-11-29T18:36:33.706Z,24.17
2022-11-29T18:41:37.440Z,24.73
2022-11-29T18:46:42.894Z,27.13
2022-11-29T18:51:46.670Z,27.17
2022-11-29T18:56:50.617Z,27.58
2022-11-29T19:01:52.768Z,26.80
2022-11-29T19:06:55.044Z,27.42
2022-11-29T19:11:57.031Z,27.83
2022-11-29T19:16:59.435Z,27.85
2022-11-29T19:22:01.437Z,30.48
2022-11-29T19:27:05.974Z,32.53
2022-11-29T19:32:09.439Z,31.80
2022-11-29T19:37:11.471Z,32.28
2022-11-29T19:42:13.477Z,33.45
2022-11-29T19:47:15.630Z,33.40
2022-11-29T19:52:17.683Z,29.67
2022-11-29T19:57:19.783Z,27.77
2022-11-29T20:02:22.892Z,28.73
2022-11-29T20:07:25.201Z,27.58
2022-11-29T20:12:27.382Z,25.88
2022-11-29T20:17:29.350Z,24.85
2022-11-29T20:22:31.372Z,23.80
2022-11-29T20:27:33.456Z,25.40
2022-11-29T20:32:35.931Z,24.33
2022-11-29T20:37:53.137Z,25.33
2022-11-29T20:43:13.599Z,25.83
2022-11-29T20:48:24.700Z,25.05
2022-11-29T20:58:29.767Z,21.80
2022-11-29T21:03:32.131Z,22.85
2022-11-29T21:08:34.447Z,25.42
2022-11-29T21:13:37.198Z,26.02
2022-11-29T21:18:39.489Z,24.27
2022-11-29T21:23:52.794Z,22.27
2022-11-29T21:29:09.961Z,23.73
2022-11-29T21:34:12.401Z,23.50
2022-11-29T21:39:16.482Z,23.17
2022-11-29T21:44:18.499Z,24.10
2022-11-29T21:49:20.579Z,24.90
2022-11-29T21:54:22.734Z,25.92
2022-11-29T21:59:24.934Z,25.05
2022-11-29T22:04:27.018Z,24.67
2022-11-29T22:09:29.018Z,24.33
2022-11-29T22:14:32.152Z,24.80
2022-11-29T22:19:36.378Z,24.65
2022-11-29T22:24:38.523Z,26.25
2022-11-29T22:29:40.587Z,25.48
2022-11-29T22:34:42.694Z,27.48
2022-11-29T22:39:45.029Z,25.02
2022-11-29T22:44:47.305Z,26.20
2022-11-29T22:49:49.856Z,25.38
2022-11-29T22:54:51.838Z,25.92
2022-11-29T22:59:53.790Z,25.83
2022-11-29T23:04:55.743Z,27.35
2022-11-29T23:09:57.773Z,25.83
2022-11-29T23:15:01.943Z,25.20
2022-11-29T23:20:04.972Z,28.35
2022-11-29T23:25:07.498Z,27.45
2022-11-29T23:30:10.025Z,26.88
2022-11-29T23:35:12.017Z,25.23
2022-11-29T23:40:14.788Z,25.05
2022-11-29T23:45:16.822Z,24.20
2022-11-29T23:50:18.833Z,22.55
2022-11-29T23:55:22.710Z,21.58
